createdAt,value
2018-01-14T00:02:16.290Z,10.43
2018-01-14T00:04:43.169Z,13.82
2018-01-14T00:07:10.831Z,10.70
2018-01-14T00:09:37.661Z,11.50
2018-01-14T00:12:04.525Z,11.80
2018-01-14T00:14:32.114Z,11.50
2018-01-14T00:16:59.038Z,11.88
2018-01-14T00:19:26.617Z,14.60
2018-01-14T00:21:53.471Z,11.38
2018-01-14T00:24:20.354Z,14.70
2018-01-14T00:26:47.230Z,10.10
2018-01-14T00:29:14.842Z,10.13
2018-01-14T00:31:41.705Z,11.98
2018-01-14T00:34:08.573Z,10.93
2018-01-14T00:36:36.254Z,10.48
2018-01-14T00:39:03.186Z,12.60
2018-01-14T00:41:30.782Z,12.88
2018-01-14T00:43:57.634Z,12.37
2018-01-14T00:46:24.566Z,11.98
2018-01-14T00:48:51.449Z,11.65
2018-01-14T00:51:18.302Z,11.55
2018-01-14T00:53:45.135Z,10.65
2018-01-14T00:56:12.821Z,10.75
2018-01-14T00:58:39.637Z,12.13
2018-01-14T01:01:06.482Z,12.55
2018-01-14T01:03:33.350Z,12.15
2018-01-14T01:06:00.279Z,10.68
2018-01-14T01:08:27.145Z,10.77
2018-01-14T01:10:54.009Z,11.77
2018-01-14T01:13:20.849Z,12.20
2018-01-14T01:15:47.776Z,12.73
2018-01-14T01:18:14.598Z,11.95
2018-01-14T01:20:41.458Z,11.82
2018-01-14T01:23:09.037Z,11.57
2018-01-14T01:25:35.987Z,10.93
2018-01-14T01:28:03.537Z,12.60
2018-01-14T01:30:31.113Z,12.82
2018-01-14T01:32:57.962Z,11.45
2018-01-14T01:35:24.798Z,12.75
2018-01-14T01:37:51.661Z,14.63
2018-01-14T01:40:18.489Z,12.75
2018-01-14T01:42:45.372Z,12.23
2018-01-14T01:45:12.203Z,14.18
2018-01-14T01:47:39.177Z,12.40
2018-01-14T01:50:06.877Z,12.25
2018-01-14T01:52:33.753Z,11.15
2018-01-14T01:55:00.598Z,11.15
2018-01-14T01:57:27.594Z,10.68
2018-01-14T01:59:54.425Z,11.52
2018-01-14T02:02:21.977Z,10.65
2018-01-14T02:04:48.839Z,10.32
2018-01-14T02:07:15.803Z,11.30
2018-01-14T02:09:42.662Z,9.88
2018-01-14T02:12:09.560Z,10.63
2018-01-14T02:14:37.153Z,13.00
2018-01-14T02:17:04.038Z,11.90
2018-01-14T02:19:30.911Z,11.32
2018-01-14T02:21:58.514Z,11.18
2018-01-14T02:24:25.377Z,10.43
2018-01-14T02:26:52.344Z,11.77
2018-01-14T02:29:19.922Z,13.07
2018-01-14T02:31:46.785Z,12.60
2018-01-14T02:34:13.654Z,11.43
2018-01-14T02:36:40.514Z,10.75
2018-01-14T02:39:08.109Z,11.27
2018-01-14T02:41:35.670Z,11.73
2018-01-14T02:44:02.514Z,11.43
2018-01-14T02:46:29.466Z,12.07
2018-01-14T02:48:56.367Z,11.38
2018-01-14T02:51:23.226Z,10.73
2018-01-14T02:53:50.861Z,10.65
2018-01-14T02:56:17.817Z,12.73
2018-01-14T02:58:44.677Z,11.48
2018-01-14T03:01:11.565Z,10.88
2018-01-14T03:03:38.411Z,12.30
2018-01-14T03:06:05.315Z,10.80
2018-01-14T03:08:32.230Z,10.95
2018-01-14T03:10:59.108Z,11.77
2018-01-14T03:13:25.981Z,10.38
2018-01-14T03:15:52.905Z,13.30
2018-01-14T03:18:19.746Z,11.73
2018-01-14T03:20:46.607Z,10.65
2018-01-14T03:23:13.452Z,10.75
2018-01-14T03:25:40.367Z,9.98
2018-01-14T03:28:07.917Z,11.12
2018-01-14T03:30:35.581Z,12.63
2018-01-14T03:33:03.165Z,11.32
2018-01-14T03:35:29.998Z,11.93
2018-01-14T03:37:56.857Z,11.70
2018-01-14T03:40:23.681Z,11.20
2018-01-14T03:42:50.542Z,12.23
2018-01-14T03:45:17.401Z,11.65
2018-01-14T03:47:44.253Z,10.98
2018-01-14T03:50:11.867Z,11.77
2018-01-14T03:52:39.437Z,10.43
2018-01-14T03:55:06.297Z,11.85
2018-01-14T03:57:33.185Z,12.68
2018-01-14T04:00:00.918Z,11.48
2018-01-14T04:02:28.505Z,13.00
2018-01-14T04:04:55.350Z,11.82
2018-01-14T04:07:22.297Z,13.23
2018-01-14T04:09:49.166Z,11.43
2018-01-14T04:12:16.770Z,11.95
2018-01-14T04:14:43.628Z,10.52
2018-01-14T04:17:10.497Z,11.00
2018-01-14T04:19:38.111Z,9.95
2018-01-14T04:22:04.998Z,9.63
2018-01-14T04:24:31.837Z,10.07
2018-01-14T04:26:58.653Z,9.30
2018-01-14T04:29:25.518Z,9.55
2018-01-14T04:31:52.345Z,9.85
2018-01-14T04:34:19.202Z,10.00
2018-01-14T04:36:46.090Z,10.02
2018-01-14T04:39:13.645Z,9.93
2018-01-14T04:41:41.196Z,9.55
2018-01-14T04:44:08.054Z,10.25
2018-01-14T04:46:34.952Z,10.77
2018-01-14T04:49:01.774Z,10.13
2018-01-14T04:51:28.625Z,10.05
2018-01-14T04:53:55.506Z,11.43
2018-01-14T04:56:23.221Z,12.98
2018-01-14T04:58:50.043Z,11.30
2018-01-14T05:01:16.918Z,10.88
2018-01-14T05:03:43.753Z,9.95
2018-01-14T05:06:10.622Z,11.45
2018-01-14T05:08:38.238Z,9.40
2018-01-14T05:11:05.059Z,9.90
2018-01-14T05:13:31.926Z,11.77
2018-01-14T05:15:58.813Z,10.10
2018-01-14T05:18:25.637Z,11.10
2018-01-14T05:20:52.484Z,9.27
2018-01-14T05:23:20.107Z,9.18
2018-01-14T05:25:46.994Z,9.68
2018-01-14T05:28:13.868Z,10.02
2018-01-14T05:30:40.742Z,11.32
2018-01-14T05:33:07.546Z,11.57
2018-01-14T05:35:35.158Z,11.02
2018-01-14T05:38:01.997Z,11.32
2018-01-14T05:40:28.830Z,9.90
2018-01-14T05:42:55.693Z,12.65
2018-01-14T05:45:22.554Z,10.18
2018-01-14T05:47:49.498Z,12.60
2018-01-14T05:50:16.373Z,10.93
2018-01-14T05:52:43.939Z,10.40
2018-01-14T05:55:11.517Z,10.70
2018-01-14T05:57:38.401Z,11.12
2018-01-14T06:00:05.272Z,10.80
2018-01-14T06:02:32.129Z,10.98
2018-01-14T06:04:58.987Z,11.40
2018-01-14T06:07:25.926Z,10.48
2018-01-14T06:09:53.509Z,10.65
2018-01-14T06:12:20.354Z,11.45
2018-01-14T06:14:47.234Z,13.23
2018-01-14T06:17:14.985Z,12.60
2018-01-14T06:19:42.245Z,10.70
2018-01-14T06:22:09.390Z,12.20
2018-01-14T06:24:36.403Z,11.12
2018-01-14T06:27:04.324Z,12.85
2018-01-14T06:29:31.914Z,11.85
2018-01-14T06:31:58.842Z,11.35
2018-01-14T06:34:26.313Z,12.55
2018-01-14T06:36:53.345Z,13.05
2018-01-14T06:39:20.977Z,13.27
2018-01-14T06:41:47.983Z,13.02
2018-01-14T06:44:14.947Z,11.63
2018-01-14T06:46:41.802Z,11.50
2018-01-14T06:49:08.657Z,12.60
2018-01-14T06:51:35.574Z,10.93
2018-01-14T06:54:03.233Z,12.63
2018-01-14T06:56:30.133Z,11.77
2018-01-14T06:58:57.717Z,11.77
2018-01-14T07:01:24.554Z,13.57
2018-01-14T07:03:51.429Z,13.30
2018-01-14T07:06:18.306Z,14.55
2018-01-14T07:08:45.266Z,12.57
2018-01-14T07:11:12.160Z,15.15
2018-01-14T07:13:39.002Z,15.15
2018-01-14T07:16:05.904Z,13.73
2018-01-14T07:18:33.475Z,14.98
2018-01-14T07:21:00.346Z,13.65
2018-01-14T07:23:27.235Z,13.35
2018-01-14T07:25:54.924Z,14.95
2018-01-14T07:28:21.809Z,13.55
2018-01-14T07:30:48.721Z,16.05
2018-01-14T07:33:15.646Z,14.65
2018-01-14T07:35:42.576Z,14.20
2018-01-14T07:38:09.437Z,13.13
2018-01-14T07:40:37.069Z,15.70
2018-01-14T07:43:04.768Z,15.05
2018-01-14T07:45:31.810Z,16.85
2018-01-14T07:47:58.713Z,15.77
2018-01-14T07:50:25.622Z,14.38
2018-01-14T07:52:52.486Z,16.60
2018-01-14T07:55:19.342Z,15.68
2018-01-14T07:57:46.866Z,13.60
2018-01-14T08:00:14.006Z,13.57
2018-01-14T08:02:40.941Z,13.70
2018-01-14T08:05:08.701Z,11.73
2018-01-14T08:07:36.434Z,13.38
2018-01-14T08:10:04.048Z,14.07
2018-01-14T08:12:31.101Z,13.40
2018-01-14T08:14:58.125Z,12.95
2018-01-14T08:17:25.198Z,13.57
2018-01-14T08:19:52.093Z,13.43
2018-01-14T08:22:19.004Z,14.60
2018-01-14T08:24:45.852Z,12.23
2018-01-14T08:27:12.846Z,13.90
2018-01-14T08:29:39.706Z,15.95
2018-01-14T08:32:07.562Z,13.98
2018-01-14T08:34:36.009Z,18.12
2018-01-14T08:37:03.087Z,17.33
2018-01-14T08:39:31.414Z,19.58
2018-01-14T08:41:58.249Z,17.92
2018-01-14T08:44:25.130Z,16.05
2018-01-14T08:46:52.782Z,18.25
2018-01-14T08:49:19.640Z,19.65
2018-01-14T08:51:46.547Z,21.25
2018-01-14T08:54:13.385Z,21.40
2018-01-14T08:56:40.282Z,19.30
2018-01-14T08:59:07.171Z,21.73
2018-01-14T09:01:39.970Z,22.17
2018-01-14T09:04:06.858Z,23.20
2018-01-14T09:06:33.814Z,22.23
2018-01-14T09:09:00.687Z,31.55
2018-01-14T09:11:27.574Z,24.92
2018-01-14T09:13:55.154Z,26.73
2018-01-14T09:16:22.122Z,23.65
2018-01-14T09:18:48.978Z,21.12
2018-01-14T09:21:15.845Z,20.17
2018-01-14T09:23:42.673Z,21.67
2018-01-14T09:26:09.560Z,24.65
2018-01-14T09:28:36.402Z,23.67
2018-01-14T09:31:03.314Z,21.35
2018-01-14T09:33:30.189Z,22.35
2018-01-14T09:35:57.849Z,24.05
2018-01-14T09:38:24.671Z,23.60
2018-01-14T09:40:51.537Z,22.60
2018-01-14T09:43:18.380Z,25.17
2018-01-14T09:45:45.349Z,24.70
2018-01-14T09:48:12.190Z,24.90
2018-01-14T09:50:39.057Z,23.27
2018-01-14T09:53:06.022Z,23.67
2018-01-14T09:55:32.962Z,21.23
2018-01-14T09:58:00.573Z,22.15
2018-01-14T10:00:27.413Z,17.12
2018-01-14T10:02:54.270Z,17.73
2018-01-14T10:05:21.825Z,18.55
2018-01-14T10:07:48.713Z,18.15
2018-01-14T10:10:15.629Z,17.70
2018-01-14T10:12:42.501Z,16.65
2018-01-14T10:15:09.326Z,16.55
2018-01-14T10:17:36.219Z,16.87
2018-01-14T10:20:03.124Z,17.52
2018-01-14T10:22:29.985Z,16.87
2018-01-14T10:24:56.853Z,19.08
2018-01-14T10:27:24.749Z,16.30
2018-01-14T10:29:52.408Z,16.35
2018-01-14T10:32:19.470Z,18.00
2018-01-14T10:34:47.259Z,16.15
2018-01-14T10:37:14.426Z,15.57
2018-01-14T10:39:42.118Z,17.87
2018-01-14T10:42:09.029Z,16.17
2018-01-14T10:44:36.638Z,14.93
2018-01-14T10:47:03.736Z,16.77
2018-01-14T10:49:30.806Z,17.05
2018-01-14T10:51:57.798Z,19.30
2018-01-14T10:54:24.864Z,16.52
2018-01-14T10:56:52.643Z,15.73
2018-01-14T10:59:19.822Z,19.87
2018-01-14T11:01:47.222Z,17.35
2018-01-14T11:04:17.266Z,15.85
2018-01-14T11:06:44.910Z,16.20
2018-01-14T11:09:12.036Z,16.55
2018-01-14T11:11:39.450Z,13.98
2018-01-14T11:14:07.067Z,15.98
2018-01-14T11:16:34.059Z,15.90
2018-01-14T11:19:00.909Z,15.27
2018-01-14T11:21:28.462Z,14.38
2018-01-14T11:23:56.053Z,11.73
2018-01-14T11:26:22.925Z,16.10
2018-01-14T11:28:51.870Z,12.80
2018-01-14T11:31:18.719Z,13.48
2018-01-14T11:33:45.570Z,17.85
2018-01-14T11:36:12.509Z,14.98
2018-01-14T11:38:39.357Z,13.48
2018-01-14T11:41:06.230Z,20.35
2018-01-14T11:43:33.077Z,12.75
2018-01-14T11:45:59.946Z,13.30
2018-01-14T11:48:27.623Z,13.27
2018-01-14T11:50:54.468Z,13.45
2018-01-14T11:53:21.309Z,15.73
2018-01-14T11:55:48.252Z,12.23
2018-01-14T11:58:18.115Z,14.40
2018-01-14T12:00:48.246Z,15.45
2018-01-14T12:03:15.323Z,14.13
2018-01-14T12:05:44.170Z,14.27
2018-01-14T12:08:18.910Z,15.10
2018-01-14T12:10:45.830Z,15.43
2018-01-14T12:13:23.121Z,17.85
2018-01-14T12:15:58.008Z,17.50
2018-01-14T13:18:08.193Z,11.07
2018-01-14T13:20:35.080Z,12.85
2018-01-14T13:23:01.970Z,11.38
2018-01-14T13:25:28.865Z,10.57
2018-01-14T13:27:56.545Z,11.48
2018-01-14T13:30:23.398Z,11.52
2018-01-14T13:32:50.973Z,11.43
2018-01-14T13:35:18.050Z,10.73
2018-01-14T13:37:45.268Z,13.10
2018-01-14T13:40:13.931Z,18.00
2018-01-14T13:45:43.107Z,13.62
2018-01-14T13:48:11.536Z,13.23
2018-01-14T14:01:50.395Z,15.52
2018-01-14T15:07:40.694Z,16.23
2018-01-14T15:10:08.473Z,22.05
2018-01-14T15:12:35.443Z,16.05
2018-01-14T15:15:02.421Z,16.50
2018-01-14T15:17:29.359Z,20.67
2018-01-14T15:19:56.946Z,14.68
2018-01-14T15:22:26.322Z,15.35
2018-01-14T15:24:56.926Z,18.15
2018-01-14T15:27:34.132Z,21.10
2018-01-14T15:33:11.411Z,16.87
2018-01-14T15:35:40.131Z,16.98
2018-01-14T15:38:08.016Z,16.33
2018-01-14T15:40:35.771Z,17.73
2018-01-14T15:43:02.683Z,17.05
2018-01-14T15:45:29.525Z,17.80
2018-01-14T15:47:57.103Z,16.58
2018-01-14T15:50:24.023Z,18.42
2018-01-14T15:52:50.919Z,20.27
2018-01-14T15:55:18.701Z,18.80
2018-01-14T15:57:50.188Z,23.45
2018-01-14T16:03:35.938Z,20.20
2018-01-14T16:06:02.858Z,20.17
2018-01-14T16:08:33.974Z,21.33
2018-01-14T16:11:01.131Z,21.00
2018-01-14T16:13:27.970Z,20.75
2018-01-14T16:15:54.937Z,19.25
2018-01-14T16:18:21.762Z,20.67
2018-01-14T16:20:49.379Z,22.90
2018-01-14T16:23:16.242Z,25.00
2018-01-14T16:25:43.143Z,22.27
2018-01-14T16:28:10.073Z,19.52
2018-01-14T16:30:36.898Z,16.37
2018-01-14T16:33:03.845Z,17.48
2018-01-14T16:35:30.686Z,20.10
2018-01-14T16:37:58.387Z,20.67
2018-01-14T16:40:25.249Z,17.73
2018-01-14T16:42:52.133Z,28.48
2018-01-14T16:45:19.753Z,21.62
2018-01-14T16:47:46.667Z,19.73
2018-01-14T16:50:13.502Z,21.05
2018-01-14T16:52:40.369Z,21.33
2018-01-14T17:12:21.422Z,23.55
2018-01-14T17:18:22.088Z,18.75
2018-01-14T17:20:48.978Z,22.37
2018-01-14T17:23:15.878Z,21.12
2018-01-14T17:25:42.732Z,19.10
2018-01-14T17:28:09.597Z,20.65
2018-01-14T17:30:36.668Z,19.10
2018-01-14T17:33:03.610Z,22.67
2018-01-14T17:35:30.537Z,22.25
2018-01-14T17:37:57.538Z,24.40
2018-01-14T17:40:24.410Z,17.42
2018-01-14T17:42:51.402Z,19.02
2018-01-14T17:45:18.281Z,18.77
2018-01-14T17:47:46.129Z,21.23
2018-01-14T17:50:13.262Z,19.58
2018-01-14T17:52:41.062Z,19.87
2018-01-14T17:55:07.958Z,19.40
2018-01-14T17:57:35.246Z,18.40
2018-01-14T18:00:03.191Z,17.00
2018-01-14T18:02:30.410Z,19.77
2018-01-14T18:04:57.481Z,18.73
2018-01-14T18:07:24.444Z,22.27
2018-01-14T18:09:51.465Z,22.62
2018-01-14T18:12:18.354Z,18.35
2018-01-14T18:14:45.933Z,18.87
2018-01-14T18:17:23.682Z,21.42
2018-01-14T18:19:50.611Z,17.70
2018-01-14T18:22:17.823Z,17.40
2018-01-14T18:24:45.176Z,19.40
2018-01-14T18:27:12.945Z,17.42
2018-01-14T18:29:40.563Z,15.73
2018-01-14T18:32:07.452Z,18.65
2018-01-14T18:34:35.093Z,19.65
2018-01-14T18:37:02.031Z,19.55
2018-01-14T18:39:29.657Z,19.95
2018-01-14T18:41:56.473Z,21.23
2018-01-14T18:44:23.378Z,16.75
2018-01-14T18:46:50.318Z,17.10
2018-01-14T18:49:17.246Z,18.85
2018-01-14T18:51:44.913Z,18.70
2018-01-14T18:54:11.752Z,21.40
2018-01-14T18:56:38.639Z,20.70
2018-01-14T18:59:05.891Z,16.87
2018-01-14T19:01:33.482Z,22.42
2018-01-14T19:04:00.341Z,16.73
2018-01-14T19:06:27.234Z,22.50
2018-01-14T19:08:54.102Z,18.95
2018-01-14T19:11:20.966Z,16.92
2018-01-14T19:13:47.856Z,19.83
2018-01-14T19:16:15.528Z,19.80
2018-01-14T19:18:43.118Z,21.55
2018-01-14T19:21:09.970Z,18.50
2018-01-14T19:23:36.853Z,23.00
2018-01-14T19:26:04.082Z,18.10
2018-01-14T19:28:30.998Z,17.27
2018-01-14T19:30:57.872Z,28.90
2018-01-14T19:33:24.779Z,19.45
2018-01-14T19:35:51.694Z,18.25
2018-01-14T19:38:19.321Z,19.45
2018-01-14T19:40:46.165Z,19.75
2018-01-14T19:43:13.263Z,20.12
2018-01-14T19:45:40.205Z,19.92
2018-01-14T19:48:07.774Z,19.67
2018-01-14T19:50:34.606Z,19.42
2018-01-14T19:53:01.489Z,20.62
2018-01-14T19:55:29.133Z,19.48
2018-01-14T19:57:56.040Z,20.62
2018-01-14T20:00:23.682Z,20.20
2018-01-14T20:02:51.316Z,19.20
2018-01-14T20:05:18.190Z,20.08
2018-01-14T20:07:45.946Z,18.62
2018-01-14T20:10:12.830Z,20.37
2018-01-14T20:12:39.778Z,17.73
2018-01-14T20:15:06.858Z,20.75
2018-01-14T20:17:34.106Z,20.65
2018-01-14T20:20:01.270Z,20.65
2018-01-14T20:22:29.823Z,23.27
2018-01-14T20:24:57.647Z,20.15
2018-01-14T20:27:25.507Z,16.12
2018-01-14T20:29:53.306Z,21.10
2018-01-14T20:32:20.510Z,15.57
2018-01-14T20:34:55.254Z,17.50
2018-01-14T20:37:22.166Z,17.50
2018-01-14T20:39:49.230Z,18.05
2018-01-14T20:42:16.347Z,12.80
2018-01-14T20:44:50.268Z,15.15
2018-01-14T20:47:17.434Z,18.65
2018-01-14T20:49:44.619Z,15.30
2018-01-14T20:52:13.511Z,14.80
2018-01-14T20:54:40.625Z,12.88
2018-01-14T20:57:07.738Z,12.90
2018-01-14T20:59:34.730Z,13.32
2018-01-14T21:02:02.389Z,12.15
2018-01-14T21:04:29.310Z,13.50
2018-01-14T21:06:56.230Z,15.75
2018-01-14T21:09:23.095Z,15.10
2018-01-14T21:11:49.969Z,20.98
2018-01-14T21:14:16.862Z,15.98
2018-01-14T21:16:45.135Z,15.38
2018-01-14T21:19:12.919Z,16.00
2018-01-14T21:21:40.782Z,12.52
2018-01-14T21:24:07.839Z,13.75
2018-01-14T21:26:34.745Z,18.77
2018-01-14T21:29:02.330Z,14.80
2018-01-14T21:31:29.598Z,19.27
2018-01-14T21:33:56.645Z,17.00
2018-01-14T21:36:24.626Z,18.27
2018-01-14T21:38:51.678Z,19.48
2018-01-14T21:41:19.400Z,13.88
2018-01-14T21:43:46.246Z,14.65
2018-01-14T21:46:13.339Z,13.38
2018-01-14T21:48:40.958Z,17.45
2018-01-14T21:51:08.540Z,16.23
2018-01-14T21:53:36.294Z,16.58
2018-01-14T21:56:03.310Z,15.77
2018-01-14T21:58:30.185Z,17.40
2018-01-14T22:00:57.054Z,14.95
2018-01-14T22:03:23.910Z,15.10
2018-01-14T22:05:50.903Z,14.65
2018-01-14T22:08:18.481Z,14.87
2018-01-14T22:10:46.094Z,12.57
2018-01-14T22:13:12.980Z,17.50
2018-01-14T22:15:39.806Z,18.27
2018-01-14T22:18:06.663Z,14.40
2018-01-14T22:20:33.478Z,17.83
2018-01-14T22:23:01.106Z,15.27
2018-01-14T22:25:27.959Z,13.98
2018-01-14T22:27:54.886Z,16.85
2018-01-14T22:30:21.766Z,16.50
2018-01-14T22:32:49.357Z,20.58
2018-01-14T22:35:16.185Z,14.70
2018-01-14T22:37:43.201Z,15.95
2018-01-14T22:40:10.793Z,18.27
2018-01-14T22:42:37.625Z,16.73
2018-01-14T22:45:05.232Z,15.85
2018-01-14T22:47:32.093Z,16.65
2018-01-14T22:49:58.952Z,17.35
2018-01-14T22:52:25.857Z,16.50
2018-01-14T22:54:52.685Z,13.45
2018-01-14T22:57:19.579Z,14.80
2018-01-14T22:59:46.534Z,18.58
2018-01-14T23:02:13.362Z,17.73
2018-01-14T23:04:40.248Z,18.92
2018-01-14T23:07:07.154Z,18.15
2018-01-14T23:09:33.988Z,18.60
2018-01-14T23:12:00.854Z,19.75
2018-01-14T23:14:27.715Z,19.58
2018-01-14T23:16:55.134Z,17.60
2018-01-14T23:19:22.771Z,17.48
2018-01-14T23:21:49.587Z,15.88
2018-01-14T23:24:16.453Z,15.63
2018-01-14T23:26:43.298Z,20.67
2018-01-14T23:29:10.134Z,19.20
2018-01-14T23:31:37.019Z,16.08
2018-01-14T23:34:03.903Z,16.25
2018-01-14T23:36:31.518Z,17.12
2018-01-14T23:38:59.121Z,16.83
2018-01-14T23:41:25.966Z,21.25
2018-01-14T23:43:52.805Z,18.83
2018-01-14T23:46:19.725Z,18.92
2018-01-14T23:48:47.342Z,18.33
2018-01-14T23:51:14.206Z,20.70
2018-01-14T23:53:41.069Z,16.05
2018-01-14T23:56:08.729Z,17.08
2018-01-14T23:58:36.320Z,15.73
